Time;durP1;ratioP1;P1;durP2;ratioP2;P2;SDS_P1;SDS_P2;PMS_P1;PMS_P2;Temp;Humidity;BMP_temperature;BMP_pressure;BME280_temperature;BME280_humidity;BME280_pressure;Samples;Min_cycle;Max_cycle;Signal;HPM_P1;HPM_P2
2020/12/31 00:01:04;;;;;;;31.60;23.75;;;16.90;99.90;;;;;;5071946;28;20096;-37
2020/12/31 00:03:30;;;;;;;30.20;22.88;;;16.90;99.90;;;;;;5071768;28;20074;-38
2020/12/31 00:05:56;;;;;;;30.77;23.73;;;16.80;99.90;;;;;;5071636;28;20021;-37
2020/12/31 00:08:22;;;;;;;30.52;23.40;;;16.80;99.90;;;;;;5071550;28;20107;-38
2020/12/31 00:10:47;;;;;;;25.35;19.63;;;16.80;99.90;;;;;;5071727;28;20566;-38
2020/12/31 00:13:13;;;;;;;27.42;21.02;;;16.80;99.90;;;;;;5071220;28;20045;-37
2020/12/31 00:15:39;;;;;;;29.13;19.92;;;16.80;99.90;;;;;;5070902;28;20052;-38
2020/12/31 00:18:05;;;;;;;26.70;19.42;;;16.70;99.90;;;;;;5070637;28;20031;-38
2020/12/31 00:20:31;;;;;;;25.33;19.85;;;16.70;99.90;;;;;;5070840;28;20039;-38
2020/12/31 00:22:57;;;;;;;22.67;18.00;;;16.70;99.90;;;;;;5071436;28;20104;-37
2020/12/31 00:25:23;;;;;;;24.77;17.70;;;16.70;99.90;;;;;;5071552;28;20099;-37
2020/12/31 00:27:50;;;;;;;27.10;19.77;;;16.70;99.90;;;;;;5071339;28;20021;-37
2020/12/31 00:30:17;;;;;;;26.35;19.38;;;16.60;99.90;;;;;;5071911;28;20029;-37
2020/12/31 00:32:45;;;;;;;22.88;17.67;;;16.60;99.90;;;;;;5071541;28;20418;-37
2020/12/31 00:35:11;;;;;;;25.73;19.05;;;16.60;99.90;;;;;;5071491;28;20421;-37
2020/12/31 00:37:37;;;;;;;22.30;16.52;;;16.60;99.90;;;;;;5071611;28;20048;-37
2020/12/31 00:40:04;;;;;;;25.30;17.75;;;16.60;99.90;;;;;;5072088;28;20459;-37
2020/12/31 00:42:30;;;;;;;23.23;16.03;;;16.60;99.90;;;;;;5071462;28;20068;-37
2020/12/31 00:44:56;;;;;;;22.08;16.52;;;16.50;99.90;;;;;;5071382;28;20529;-36
2020/12/31 00:47:22;;;;;;;21.13;16.17;;;16.50;99.90;;;;;;5071341;28;20033;-36
2020/12/31 00:49:48;;;;;;;22.45;16.02;;;16.50;99.90;;;;;;5071727;28;20036;-35
2020/12/31 00:52:14;;;;;;;21.35;15.68;;;16.50;99.90;;;;;;5071158;28;20029;-35
2020/12/31 00:54:40;;;;;;;23.05;15.15;;;16.40;99.90;;;;;;5070033;28;20025;-37
2020/12/31 00:57:06;;;;;;;20.65;15.35;;;16.40;99.90;;;;;;5074584;28;20043;-36
2020/12/31 00:59:31;;;;;;;21.58;15.35;;;16.40;99.90;;;;;;5075379;28;20032;-37
2020/12/31 01:01:57;;;;;;;18.90;14.73;;;16.40;99.90;;;;;;5073233;28;20045;-36
2020/12/31 01:04:23;;;;;;;19.30;15.18;;;16.40;99.90;;;;;;5075025;28;20028;-37
2020/12/31 01:06:49;;;;;;;19.38;15.10;;;16.40;99.90;;;;;;5074676;28;20439;-36
2020/12/31 01:09:15;;;;;;;18.88;13.60;;;16.30;99.90;;;;;;5073135;28;20079;-36
2020/12/31 01:11:41;;;;;;;20.27;13.65;;;16.40;99.90;;;;;;5074323;28;20082;-36
2020/12/31 01:14:07;;;;;;;17.50;13.73;;;16.30;99.90;;;;;;5074627;28;20039;-36
2020/12/31 01:16:33;;;;;;;17.77;13.48;;;16.40;99.90;;;;;;5074484;28;20032;-37
2020/12/31 01:19:00;;;;;;;18.42;12.75;;;16.30;99.90;;;;;;5074300;28;20074;-36
2020/12/31 01:21:26;;;;;;;14.05;11.38;;;16.40;99.90;;;;;;5074619;28;20031;-36
2020/12/31 01:23:52;;;;;;;17.67;12.02;;;16.30;99.90;;;;;;5074245;28;20024;-36
2020/12/31 01:26:32;;;;;;;15.70;11.55;;;16.30;99.90;;;;;;5074315;28;20716;-36
2020/12/31 01:28:59;;;;;;;13.25;10.50;;;16.30;99.90;;;;;;5071954;28;20478;-36
2020/12/31 01:31:24;;;;;;;15.73;10.95;;;16.30;99.90;;;;;;5074437;28;20048;-36
2020/12/31 01:33:50;;;;;;;12.70;10.63;;;16.30;99.90;;;;;;5074478;28;20040;-36
2020/12/31 01:36:16;;;;;;;17.15;11.50;;;16.30;99.90;;;;;;5076538;28;20024;-36
2020/12/31 01:38:43;;;;;;;13.40;9.30;;;16.30;99.90;;;;;;5078062;28;20025;-36
2020/12/31 01:41:09;;;;;;;13.63;10.07;;;16.20;99.90;;;;;;5074142;28;20024;-36
2020/12/31 01:43:35;;;;;;;15.13;10.88;;;16.20;99.90;;;;;;5074217;28;20078;-36
2020/12/31 01:46:01;;;;;;;14.27;9.95;;;16.20;99.90;;;;;;5074194;28;20031;-36
2020/12/31 01:48:27;;;;;;;13.55;10.55;;;16.10;99.90;;;;;;5073793;28;20107;-37
2020/12/31 01:50:53;;;;;;;15.75;10.70;;;16.10;99.90;;;;;;5074331;28;20017;-36
2020/12/31 01:53:21;;;;;;;11.93;9.35;;;16.10;99.90;;;;;;5073764;28;20141;-36
2020/12/31 01:55:47;;;;;;;12.27;8.75;;;16.10;99.90;;;;;;5074021;28;20078;-36
2020/12/31 01:58:13;;;;;;;12.32;9.10;;;16.10;99.90;;;;;;5073431;28;20459;-36
2020/12/31 02:00:38;;;;;;;12.88;9.32;;;16.10;99.90;;;;;;5073695;28;20029;-36
2020/12/31 02:03:04;;;;;;;11.68;8.98;;;16.10;99.90;;;;;;5072993;28;20036;-36
2020/12/31 02:05:30;;;;;;;11.95;8.48;;;16.10;99.90;;;;;;5072897;28;20043;-36
2020/12/31 02:07:56;;;;;;;9.90;8.32;;;16.10;99.90;;;;;;5073488;28;20557;-36
2020/12/31 02:10:22;;;;;;;15.15;9.13;;;16.10;99.90;;;;;;5073161;28;20470;-36
2020/12/31 02:12:48;;;;;;;12.85;8.32;;;16.00;99.90;;;;;;5073238;28;20090;-36
2020/12/31 02:15:15;;;;;;;11.27;8.27;;;16.00;99.90;;;;;;5072752;28;20099;-36
2020/12/31 02:17:43;;;;;;;12.47;8.63;;;16.00;99.90;;;;;;5072559;28;20532;-36
2020/12/31 02:20:10;;;;;;;10.30;7.57;;;16.00;99.90;;;;;;5071540;28;20021;-37
2020/12/31 02:22:36;;;;;;;9.75;7.57;;;16.00;99.90;;;;;;5073100;28;20048;-36
2020/12/31 02:25:02;;;;;;;11.13;7.82;;;16.00;99.90;;;;;;5073805;28;20430;-36
2020/12/31 02:27:28;;;;;;;10.73;7.70;;;16.00;99.90;;;;;;5073196;28;20044;-37
2020/12/31 02:29:54;;;;;;;10.02;7.10;;;16.00;99.90;;;;;;5061958;28;20028;-37
2020/12/31 02:32:20;;;;;;;10.57;7.57;;;16.00;99.90;;;;;;5072940;28;20059;-37
2020/12/31 02:34:46;;;;;;;11.02;8.13;;;16.00;99.90;;;;;;5073026;28;20033;-38
2020/12/31 02:37:11;;;;;;;11.20;7.22;;;15.90;99.90;;;;;;5073204;28;20359;-37
2020/12/31 02:39:37;;;;;;;13.10;7.55;;;15.90;99.90;;;;;;5073502;28;20154;-37
2020/12/31 02:42:03;;;;;;;13.27;8.40;;;15.90;99.90;;;;;;5072729;28;20364;-37
2020/12/31 02:44:29;;;;;;;11.32;8.02;;;15.90;99.90;;;;;;5072953;28;20508;-37
2020/12/31 02:46:55;;;;;;;11.35;6.63;;;15.90;99.90;;;;;;5072785;28;20035;-37
2020/12/31 02:49:20;;;;;;;10.02;6.70;;;15.90;99.90;;;;;;5072964;28;20024;-37
2020/12/31 02:51:47;;;;;;;9.18;6.70;;;15.90;99.90;;;;;;5072470;28;20029;-38
2020/12/31 02:54:13;;;;;;;11.80;7.07;;;15.90;99.90;;;;;;5072639;28;20021;-37
2020/12/31 02:56:39;;;;;;;9.50;7.05;;;15.90;99.90;;;;;;5072930;28;20417;-37
2020/12/31 02:59:05;;;;;;;8.52;6.65;;;15.90;99.90;;;;;;5072670;28;20489;-37
2020/12/31 03:01:30;;;;;;;9.40;6.95;;;15.90;99.90;;;;;;5072325;28;20028;-37
2020/12/31 03:03:57;;;;;;;8.13;6.38;;;15.90;99.90;;;;;;5072128;28;20059;-37
2020/12/31 03:06:23;;;;;;;11.93;7.35;;;15.90;99.90;;;;;;5072897;28;20052;-37
2020/12/31 03:08:48;;;;;;;11.93;7.38;;;15.90;99.90;;;;;;5072238;28;20059;-37
2020/12/31 03:11:25;;;;;;;9.50;6.53;;;15.80;99.90;;;;;;5072362;28;20060;-37
2020/12/31 03:13:52;;;;;;;8.88;6.45;;;15.90;99.90;;;;;;5072883;28;20723;-37
2020/12/31 03:16:18;;;;;;;8.25;6.25;;;15.80;99.90;;;;;;5072265;28;20819;-37
2020/12/31 03:18:45;;;;;;;9.48;6.85;;;15.80;99.90;;;;;;5071300;28;20020;-37
2020/12/31 03:21:11;;;;;;;9.27;6.03;;;15.80;99.90;;;;;;5072299;28;20039;-37
2020/12/31 03:23:37;;;;;;;9.60;6.65;;;15.80;99.90;;;;;;5069535;28;20021;-37
2020/12/31 03:26:03;;;;;;;9.30;6.00;;;15.80;99.90;;;;;;5072147;28;20103;-37
2020/12/31 03:28:29;;;;;;;10.70;6.05;;;15.80;99.90;;;;;;5071896;28;20028;-37
2020/12/31 03:30:55;;;;;;;6.88;5.80;;;15.80;99.90;;;;;;5071737;28;20079;-37
2020/12/31 03:33:21;;;;;;;9.38;6.63;;;15.70;99.90;;;;;;5072072;28;20429;-37
2020/12/31 03:35:48;;;;;;;10.90;5.88;;;15.70;99.90;;;;;;5071480;28;20065;-37
2020/12/31 03:38:16;;;;;;;8.40;5.88;;;15.70;99.90;;;;;;5071891;28;20027;-37
2020/12/31 03:40:42;;;;;;;;;;;15.70;99.90;;;;;;5072742;28;20056;-37
2020/12/31 03:43:08;;;;;;;7.95;6.20;;;15.80;99.90;;;;;;5071572;28;19944;-37
2020/12/31 03:45:35;;;;;;;8.75;5.25;;;15.70;99.90;;;;;;5072111;28;20028;-37
2020/12/31 03:48:01;;;;;;;7.80;5.72;;;15.70;99.90;;;;;;5072255;28;20032;-37
2020/12/31 03:50:28;;;;;;;6.97;5.53;;;15.70;99.90;;;;;;5072324;28;20028;-37
2020/12/31 03:52:53;;;;;;;8.27;5.38;;;15.70;99.90;;;;;;5072231;28;20463;-37
2020/12/31 03:55:19;;;;;;;9.75;5.57;;;15.60;99.90;;;;;;5071724;28;20029;-37
2020/12/31 03:57:45;;;;;;;8.68;5.75;;;15.60;99.90;;;;;;5071912;28;20028;-38
2020/12/31 04:00:12;;;;;;;11.90;6.25;;;15.60;99.90;;;;;;5071858;28;20024;-37
2020/12/31 04:02:38;;;;;;;7.78;5.95;;;15.60;99.90;;;;;;5071748;28;20058;-37
2020/12/31 04:05:04;;;;;;;9.02;5.50;;;15.60;99.90;;;;;;5071934;28;20125;-37
2020/12/31 04:07:30;;;;;;;7.25;5.30;;;15.60;99.90;;;;;;5071390;28;20032;-37
2020/12/31 04:09:56;;;;;;;8.88;5.45;;;15.60;99.90;;;;;;5072382;28;20028;-37
2020/12/31 04:12:23;;;;;;;7.28;5.43;;;15.60;99.90;;;;;;5071237;28;20021;-37
2020/12/31 04:14:49;;;;;;;7.85;5.78;;;15.60;99.90;;;;;;5071000;28;20085;-37
2020/12/31 04:17:14;;;;;;;7.35;5.10;;;15.60;99.90;;;;;;5071343;28;20017;-37
2020/12/31 04:19:41;;;;;;;7.25;5.55;;;15.60;99.90;;;;;;5071526;28;20029;-37
2020/12/31 04:22:08;;;;;;;11.77;5.97;;;15.60;99.90;;;;;;5071686;28;20028;-37
2020/12/31 04:24:34;;;;;;;7.57;4.85;;;15.60;99.90;;;;;;5071308;28;20024;-37
2020/12/31 04:27:00;;;;;;;7.43;5.20;;;15.60;99.90;;;;;;5064590;28;20017;-37
2020/12/31 04:29:26;;;;;;;9.95;5.28;;;15.60;99.90;;;;;;5071648;28;20474;-33
2020/12/31 04:31:52;;;;;;;6.80;4.88;;;15.60;99.90;;;;;;5075672;28;20049;-33
2020/12/31 04:34:18;;;;;;;6.03;4.45;;;15.60;99.90;;;;;;5075534;28;20024;-33
2020/12/31 04:36:44;;;;;;;7.97;5.80;;;15.60;99.90;;;;;;5075716;28;20020;-33
2020/12/31 04:39:10;;;;;;;5.47;4.70;;;15.50;99.90;;;;;;5076008;28;20032;-33
2020/12/31 04:41:36;;;;;;;9.85;5.32;;;15.50;99.90;;;;;;5075683;28;20455;-33
2020/12/31 04:44:02;;;;;;;6.00;4.63;;;15.50;99.90;;;;;;5075461;28;20040;-33
2020/12/31 04:46:30;;;;;;;6.53;4.60;;;15.50;99.90;;;;;;5075075;28;20035;-33
2020/12/31 04:49:05;;;;;;;6.10;4.53;;;15.50;99.90;;;;;;5075383;28;20039;-33
2020/12/31 04:51:35;;;;;;;5.55;4.20;;;15.50;99.90;;;;;;5075360;28;20056;-33
2020/12/31 04:54:05;;;;;;;5.45;3.63;;;15.50;99.90;;;;;;5075670;28;20424;-33
2020/12/31 04:56:37;;;;;;;9.38;5.03;;;15.50;99.90;;;;;;5076004;28;20024;-33
2020/12/31 04:59:04;;;;;;;8.27;4.00;;;15.50;99.90;;;;;;5077462;28;20044;-33
2020/12/31 05:01:30;;;;;;;8.23;4.82;;;15.50;99.90;;;;;;5075395;28;20017;-33
2020/12/31 05:03:56;;;;;;;6.72;4.55;;;15.50;99.90;;;;;;5074791;28;20225;-33
2020/12/31 05:06:25;;;;;;;6.85;4.50;;;15.50;99.90;;;;;;5075336;28;20031;-33
2020/12/31 05:08:51;;;;;;;7.75;4.35;;;15.40;99.90;;;;;;5074907;28;20121;-36
2020/12/31 05:11:18;;;;;;;10.98;4.28;;;15.50;99.90;;;;;;5072766;28;20484;-37
2020/12/31 05:13:51;;;;;;;7.70;4.50;;;15.40;99.90;;;;;;5073863;28;20020;-37
2020/12/31 05:16:34;;;;;;;6.43;4.22;;;15.40;99.90;;;;;;5074461;28;20046;-37
2020/12/31 05:19:00;;;;;;;5.90;3.80;;;15.40;99.90;;;;;;5074040;28;20029;-37
2020/12/31 05:21:26;;;;;;;6.47;4.05;;;15.40;99.90;;;;;;5066483;28;20028;-38
2020/12/31 05:23:52;;;;;;;6.53;4.68;;;15.40;99.90;;;;;;5074219;28;20074;-37
2020/12/31 05:26:31;;;;;;;7.85;4.45;;;15.40;99.90;;;;;;5074904;28;20021;-37
2020/12/31 05:28:58;;;;;;;6.65;3.88;;;15.40;99.90;;;;;;5074737;28;20040;-37
2020/12/31 05:31:24;;;;;;;6.57;5.03;;;15.40;99.90;;;;;;5074653;28;20041;-37
2020/12/31 05:33:50;;;;;;;5.97;4.10;;;15.40;99.90;;;;;;5073869;28;20039;-37
2020/12/31 05:36:26;;;;;;;5.85;4.63;;;15.40;99.90;;;;;;5072498;28;20099;-37
2020/12/31 05:38:56;;;;;;;8.38;4.22;;;15.40;99.90;;;;;;5073776;28;20096;-39
2020/12/31 05:41:26;;;;;;;6.70;4.22;;;15.40;99.90;;;;;;5088367;28;20020;-39
2020/12/31 05:43:59;;;;;;;5.60;4.32;;;15.40;99.90;;;;;;5070639;28;20028;-39
2020/12/31 05:46:26;;;;;;;7.70;4.50;;;15.40;99.90;;;;;;5073958;28;20036;-39
2020/12/31 05:48:59;;;;;;;5.47;4.20;;;15.40;99.90;;;;;;5073439;28;20075;-40
2020/12/31 05:51:29;;;;;;;8.40;4.60;;;15.30;99.90;;;;;;5074259;28;20020;-39
2020/12/31 05:54:11;;;;;;;5.32;3.70;;;15.40;99.90;;;;;;5070381;28;20029;-39
2020/12/31 05:56:38;;;;;;;5.18;3.80;;;15.30;99.90;;;;;;5072517;28;20028;-39
2020/12/31 05:59:25;;;;;;;6.30;4.55;;;15.30;99.90;;;;;;5073378;28;20021;-39
2020/12/31 06:02:03;;;;;;;6.72;3.95;;;15.30;99.90;;;;;;5073698;28;20028;-39
2020/12/31 06:04:45;;;;;;;5.05;3.40;;;15.30;99.90;;;;;;5065583;28;20505;-39
2020/12/31 06:07:29;;;;;;;6.95;3.35;;;15.30;99.90;;;;;;5071432;28;20074;-39
2020/12/31 06:10:06;;;;;;;6.68;4.10;;;15.30;99.90;;;;;;5073421;28;20056;-39
2020/12/31 06:12:43;;;;;;;6.32;3.90;;;15.30;99.90;;;;;;5073860;28;20438;-39
2020/12/31 06:15:09;;;;;;;5.80;3.47;;;15.20;99.90;;;;;;5073159;28;20024;-39
2020/12/31 06:17:46;;;;;;;6.30;3.55;;;15.20;99.90;;;;;;5073335;28;20032;-39
2020/12/31 06:20:16;;;;;;;4.85;3.60;;;15.20;99.90;;;;;;5072000;28;20028;-39
2020/12/31 06:23:03;;;;;;;3.80;2.70;;;15.20;99.90;;;;;;5073264;28;20032;-39
2020/12/31 06:25:35;;;;;;;4.60;3.20;;;15.20;99.90;;;;;;5073273;28;20528;-39
2020/12/31 06:28:22;;;;;;;5.88;3.42;;;15.20;99.90;;;;;;5072748;28;20029;-39
2020/12/31 06:30:52;;;;;;;6.07;3.65;;;15.20;99.90;;;;;;5069527;28;20044;-39
2020/12/31 06:33:48;;;;;;;7.78;3.30;;;15.20;99.90;;;;;;5072891;28;20045;-39
2020/12/31 06:36:14;;;;;;;6.50;3.65;;;15.10;99.90;;;;;;5058804;28;20032;-39
2020/12/31 06:38:47;;;;;;;3.88;3.42;;;15.10;99.90;;;;;;5058543;28;20104;-39
2020/12/31 06:41:30;;;;;;;6.47;3.35;;;15.10;99.90;;;;;;5055628;28;20025;-39
2020/12/31 06:44:13;;;;;;;6.82;3.13;;;15.10;99.90;;;;;;5042381;28;20079;-40
2020/12/31 06:46:44;;;;;;;7.05;3.58;;;15.10;99.90;;;;;;5049012;28;20034;-39
2020/12/31 06:49:11;;;;;;;4.47;2.78;;;15.10;99.90;;;;;;5061311;28;20138;-39
2020/12/31 06:51:37;;;;;;;6.75;2.65;;;15.10;99.90;;;;;;5054204;28;20086;-35
2020/12/31 06:54:03;;;;;;;5.65;3.28;;;15.10;99.90;;;;;;5052610;28;20112;-36
2020/12/31 06:56:49;;;;;;;5.00;3.25;;;15.10;99.90;;;;;;5054396;28;20021;-39
2020/12/31 06:59:35;;;;;;;7.38;3.03;;;15.10;99.90;;;;;;5051260;28;21683;-38
2020/12/31 07:02:22;;;;;;;4.53;2.78;;;15.10;99.90;;;;;;5051232;28;20024;-39
2020/12/31 07:04:48;;;;;;;5.13;2.97;;;15.10;99.90;;;;;;5055799;28;20028;-39
2020/12/31 07:07:20;;;;;;;6.25;2.75;;;15.10;99.90;;;;;;5047273;28;20119;-39
2020/12/31 07:09:59;;;;;;;6.93;3.20;;;15.10;99.90;;;;;;5060095;28;20152;-39
2020/12/31 07:12:33;;;;;;;4.78;2.88;;;15.10;99.90;;;;;;5058684;28;20040;-39
2020/12/31 07:14:58;;;;;;;7.05;4.50;;;15.10;99.90;;;;;;5071903;28;20471;-38
2020/12/31 07:17:24;;;;;;;5.25;3.35;;;15.10;99.90;;;;;;5072139;28;20078;-38
2020/12/31 07:19:59;;;;;;;7.00;3.58;;;15.10;99.90;;;;;;5072441;28;20044;-39
2020/12/31 07:22:26;;;;;;;5.38;3.10;;;15.10;99.90;;;;;;5071841;28;20059;-39
2020/12/31 07:25:11;;;;;;;4.72;3.45;;;15.10;99.90;;;;;;5072145;28;20054;-38
2020/12/31 07:27:42;;;;;;;6.40;3.53;;;15.20;99.90;;;;;;5070073;28;20032;-39
2020/12/31 07:30:08;;;;;;;7.07;2.97;;;15.10;99.90;;;;;;5063957;28;20033;-39
2020/12/31 07:32:53;;;;;;;10.02;5.70;;;15.10;99.90;;;;;;5072112;28;20098;-39
2020/12/31 07:35:26;;;;;;;8.55;6.40;;;15.10;99.90;;;;;;5065378;28;20442;-39
2020/12/31 07:37:57;;;;;;;8.73;4.80;;;15.20;99.90;;;;;;5071964;28;20054;-39
2020/12/31 07:40:33;;;;;;;8.93;5.38;;;15.20;99.90;;;;;;5072220;28;20048;-39
2020/12/31 07:42:59;;;;;;;9.65;6.32;;;15.20;99.90;;;;;;5071394;28;20052;-39
2020/12/31 07:45:27;;;;;;;9.10;6.20;;;15.20;99.90;;;;;;5071916;28;20032;-39
2020/12/31 07:47:54;;;;;;;10.23;6.65;;;15.20;99.90;;;;;;5071828;28;20462;-39
2020/12/31 07:50:21;;;;;;;8.05;5.70;;;15.20;99.90;;;;;;5072360;28;20063;-37
2020/12/31 07:52:47;;;;;;;11.80;6.35;;;15.20;99.90;;;;;;5071450;28;20043;-38
2020/12/31 07:55:13;;;;;;;10.10;6.38;;;15.20;99.90;;;;;;5071562;28;20051;-38
2020/12/31 07:57:39;;;;;;;10.70;6.63;;;15.20;99.90;;;;;;5072019;28;20435;-39
2020/12/31 08:00:13;;;;;;;10.80;6.43;;;15.20;99.90;;;;;;5071304;28;20028;-37
2020/12/31 08:02:49;;;;;;;10.10;6.43;;;15.20;99.90;;;;;;5071834;28;20100;-36
2020/12/31 08:05:17;;;;;;;10.05;6.38;;;15.20;99.90;;;;;;5072731;28;20024;-36
2020/12/31 08:07:44;;;;;;;;;;;15.30;99.90;;;;;;5074951;28;20024;-37
2020/12/31 08:10:11;;;;;;;18.20;10.65;;;15.20;99.90;;;;;;5074541;28;19912;-38
2020/12/31 08:12:39;;;;;;;16.85;12.18;;;15.30;99.90;;;;;;5075499;28;20417;-38
2020/12/31 08:15:06;;;;;;;31.48;20.95;;;15.40;99.90;;;;;;5076871;28;20043;-38
2020/12/31 08:17:32;;;;;;;35.08;23.80;;;15.30;99.90;;;;;;5073921;28;20025;-38
2020/12/31 08:20:00;;;;;;;40.42;26.45;;;15.40;99.90;;;;;;5074444;28;20443;-39
2020/12/31 08:22:39;;;;;;;40.25;30.67;;;15.50;99.90;;;;;;5073886;28;20044;-39
2020/12/31 08:25:14;;;;;;;45.17;32.08;;;15.50;99.90;;;;;;5073118;28;20100;-39
2020/12/31 08:27:41;;;;;;;45.35;32.67;;;15.50;99.90;;;;;;5074891;28;20042;-34
2020/12/31 08:30:09;;;;;;;48.92;32.88;;;15.50;99.90;;;;;;5075314;28;20024;-34
2020/12/31 08:32:59;;;;;;;45.60;34.45;;;15.50;99.90;;;;;;5075646;28;20127;-34
2020/12/31 08:35:42;;;;;;;47.47;34.33;;;15.50;99.90;;;;;;5070422;28;20474;-35
2020/12/31 08:38:13;;;;;;;50.22;35.40;;;15.60;99.90;;;;;;5074557;28;20032;-35
2020/12/31 08:40:56;;;;;;;50.83;35.97;;;15.60;99.90;;;;;;5068598;28;20056;-34
2020/12/31 08:43:33;;;;;;;49.85;36.22;;;15.50;99.90;;;;;;5078006;28;20029;-35
2020/12/31 08:46:00;;;;;;;55.70;36.78;;;15.70;99.90;;;;;;5075144;28;20086;-33
2020/12/31 08:48:27;;;;;;;53.33;35.47;;;15.60;99.90;;;;;;5073698;28;20027;-33
2020/12/31 08:51:11;;;;;;;44.20;31.42;;;15.60;99.90;;;;;;5075607;28;20052;-33
2020/12/31 08:53:56;;;;;;;41.17;29.23;;;15.60;99.90;;;;;;5073228;28;20103;-33
2020/12/31 08:56:26;;;;;;;40.15;26.33;;;15.60;99.90;;;;;;5071223;28;20028;-33
2020/12/31 08:59:08;;;;;;;33.20;23.13;;;15.60;99.90;;;;;;5074795;28;20020;-32
2020/12/31 09:01:34;;;;;;;23.48;16.75;;;15.50;99.90;;;;;;5074951;28;20020;-32
2020/12/31 09:04:07;;;;;;;30.27;18.63;;;15.40;99.90;;;;;;5073880;28;20082;-32
2020/12/31 09:06:33;;;;;;;24.52;15.15;;;15.50;99.90;;;;;;5074604;28;20032;-31
2020/12/31 09:08:59;;;;;;;21.92;15.48;;;15.60;99.90;;;;;;5075085;28;20474;-33
2020/12/31 09:11:29;;;;;;;26.60;15.18;;;15.70;99.90;;;;;;5075066;28;20024;-32
2020/12/31 09:14:08;;;;;;;22.08;15.02;;;15.90;99.90;;;;;;5074756;28;20475;-35
2020/12/31 09:16:34;;;;;;;20.25;14.30;;;16.00;99.90;;;;;;5074175;28;20061;-34
2020/12/31 09:19:01;;;;;;;25.75;15.43;;;16.20;99.90;;;;;;5075312;28;20048;-32
2020/12/31 09:21:29;;;;;;;25.25;13.60;;;16.30;99.90;;;;;;5069802;28;20525;-31
2020/12/31 09:23:55;;;;;;;20.13;13.90;;;16.40;99.90;;;;;;5073906;28;20107;-36
2020/12/31 09:26:25;;;;;;;22.75;12.73;;;16.50;99.90;;;;;;5074169;28;20258;-39
2020/12/31 09:28:51;;;;;;;17.60;11.88;;;16.50;99.90;;;;;;5073647;28;20032;-44
2020/12/31 09:31:22;;;;;;;20.10;11.70;;;16.60;99.90;;;;;;5073412;28;20552;-39
2020/12/31 09:33:48;;;;;;;15.02;10.93;;;16.60;99.90;;;;;;5072700;28;20040;-39
2020/12/31 09:36:24;;;;;;;22.42;12.23;;;16.60;99.90;;;;;;5070669;28;20032;-39
2020/12/31 09:38:51;;;;;;;14.65;9.43;;;16.60;99.90;;;;;;5071548;28;20059;-39
2020/12/31 09:41:17;;;;;;;15.48;9.05;;;16.60;99.90;;;;;;5069473;28;20427;-39
2020/12/31 09:43:43;;;;;;;14.25;9.05;;;16.70;99.90;;;;;;5074119;28;20033;-39
2020/12/31 09:46:10;;;;;;;15.88;8.98;;;16.70;99.90;;;;;;5069280;28;20493;-38
2020/12/31 09:48:36;;;;;;;12.70;8.20;;;16.70;99.90;;;;;;5073982;28;20032;-35
2020/12/31 09:51:03;;;;;;;13.05;7.82;;;16.70;99.90;;;;;;5073856;28;20027;-35
2020/12/31 09:53:29;;;;;;;11.50;7.13;;;16.80;99.90;;;;;;5070048;28;20056;-35
2020/12/31 09:55:55;;;;;;;11.90;6.57;;;16.70;99.90;;;;;;5069386;28;20469;-39
2020/12/31 09:58:21;;;;;;;11.02;7.60;;;16.70;99.90;;;;;;5087618;28;20029;-38
2020/12/31 10:00:46;;;;;;;10.57;6.78;;;16.70;99.90;;;;;;5068930;28;20021;-38
2020/12/31 10:03:12;;;;;;;12.38;6.45;;;16.70;99.90;;;;;;5073342;28;20033;-37
2020/12/31 10:05:38;;;;;;;10.70;6.15;;;16.70;99.90;;;;;;5071854;28;20029;-37
2020/12/31 10:08:04;;;;;;;11.30;6.43;;;16.60;99.90;;;;;;5072848;28;20068;-38
2020/12/31 10:10:30;;;;;;;10.95;6.15;;;16.60;99.90;;;;;;5071388;28;20024;-36
2020/12/31 10:12:56;;;;;;;10.73;6.00;;;16.60;99.90;;;;;;5070287;28;20420;-38
2020/12/31 10:15:22;;;;;;;11.73;6.60;;;16.60;99.90;;;;;;5072482;28;20424;-38
2020/12/31 10:17:47;;;;;;;14.85;6.78;;;16.60;99.90;;;;;;5086464;28;20040;-37
2020/12/31 10:20:13;;;;;;;16.33;6.60;;;16.60;99.90;;;;;;5072163;28;20044;-39
2020/12/31 10:22:39;;;;;;;27.35;8.98;;;16.60;99.90;;;;;;5071588;28;20036;-36
2020/12/31 10:37:57;;;;;;;22.17;8.07;;;16.70;99.90;;;;;;5121163;27;20464;-41
2020/12/31 10:40:22;;;;;;;15.43;6.68;;;16.80;99.90;;;;;;5095625;28;20028;-38
2020/12/31 10:42:48;;;;;;;19.83;7.68;;;16.90;99.90;;;;;;5126831;27;20027;-39
2020/12/31 10:45:14;;;;;;;21.75;8.80;;;17.20;99.90;;;;;;5122038;27;20480;-36
2020/12/31 10:47:40;;;;;;;15.95;7.30;;;17.40;99.90;;;;;;5127596;27;20095;-40
2020/12/31 10:50:06;;;;;;;16.65;6.70;;;17.60;99.90;;;;;;5104258;27;20035;-39
2020/12/31 10:52:31;;;;;;;15.23;6.47;;;17.70;99.90;;;;;;5123708;27;20028;-36
2020/12/31 10:54:57;;;;;;;11.60;5.50;;;17.80;99.90;;;;;;5127260;27;20372;-39
2020/12/31 10:57:23;;;;;;;14.05;4.32;;;18.00;99.90;;;;;;5126858;28;20020;-39
2020/12/31 10:59:49;;;;;;;17.45;5.75;;;18.10;99.90;;;;;;5115809;27;20482;-39
2020/12/31 11:02:15;;;;;;;16.13;5.28;;;18.40;99.90;;;;;;5124443;27;20039;-38
2020/12/31 11:04:41;;;;;;;10.73;5.60;;;18.50;99.90;;;;;;5128625;27;20027;-38
2020/12/31 11:07:07;;;;;;;15.32;5.43;;;18.70;99.90;;;;;;5125678;27;20031;-38
2020/12/31 11:09:32;;;;;;;11.88;5.55;;;18.80;99.90;;;;;;5125020;28;20066;-38
2020/12/31 11:11:58;;;;;;;19.55;5.45;;;19.00;99.90;;;;;;5127156;28;20453;-37
2020/12/31 11:26:43;;;;;;;35.58;11.98;;;19.20;99.90;;;;;;5067456;28;20465;-35
2020/12/31 11:29:09;;;;;;;31.85;14.30;;;19.70;99.90;;;;;;5060224;28;20036;-35
2020/12/31 11:31:34;;;;;;;40.33;14.65;;;19.80;99.90;;;;;;5060031;28;20524;-35
2020/12/31 11:34:00;;;;;;;37.38;15.10;;;20.00;99.90;;;;;;5065008;28;20033;-35
2020/12/31 11:36:27;;;;;;;34.35;12.35;;;20.10;99.90;;;;;;5057251;28;20025;-34
2020/12/31 11:38:54;;;;;;;31.20;10.50;;;20.10;99.90;;;;;;5066437;28;20667;-35
2020/12/31 11:41:20;;;;;;;26.65;12.75;;;20.20;99.90;;;;;;5068612;28;20021;-35
2020/12/31 11:43:46;;;;;;;27.65;12.00;;;20.40;99.90;;;;;;5064642;28;20112;-37
2020/12/31 11:46:12;;;;;;;25.45;12.52;;;20.40;99.90;;;;;;5052117;28;20033;-35
2020/12/31 11:48:38;;;;;;;25.70;9.32;;;20.50;99.90;;;;;;5066033;28;20536;-35
2020/12/31 11:51:08;;;;;;;26.65;9.18;;;20.60;99.90;;;;;;5070764;28;20028;-34
2020/12/31 11:53:34;;;;;;;17.75;8.23;;;20.50;99.90;;;;;;5065006;28;20029;-35
2020/12/31 11:56:01;;;;;;;18.02;7.18;;;20.40;99.90;;;;;;5067439;28;20051;-35
2020/12/31 11:58:27;;;;;;;19.27;6.60;;;20.10;99.90;;;;;;5065371;28;20024;-35
2020/12/31 12:00:53;;;;;;;15.02;7.63;;;20.20;99.90;;;;;;5061581;28;20257;-36
2020/12/31 12:03:19;;;;;;;15.50;7.28;;;20.20;99.90;;;;;;5055428;28;20049;-37
2020/12/31 12:05:45;;;;;;;14.23;7.03;;;20.10;99.90;;;;;;5058392;28;20064;-37
2020/12/31 12:08:11;;;;;;;13.77;5.90;;;20.10;99.90;;;;;;5066797;28;20039;-36
2020/12/31 12:10:37;;;;;;;15.02;7.20;;;20.30;99.90;;;;;;5066334;28;20020;-36
2020/12/31 12:13:02;;;;;;;15.80;6.15;;;20.30;99.90;;;;;;5064398;28;20490;-36
2020/12/31 12:15:28;;;;;;;15.85;5.82;;;22.20;99.90;;;;;;5059919;28;20106;-36
2020/12/31 12:17:54;;;;;;;15.85;7.55;;;24.40;99.90;;;;;;5062013;28;20021;-40
2020/12/31 12:20:20;;;;;;;16.55;8.05;;;26.10;99.90;;;;;;5054356;28;20014;-39
2020/12/31 12:22:46;;;;;;;9.85;6.82;;;26.60;99.90;;;;;;5053932;28;20029;-40
2020/12/31 12:25:13;;;;;;;16.65;7.00;;;25.80;99.90;;;;;;5060480;28;20049;-40
2020/12/31 12:27:40;;;;;;;11.10;5.70;;;24.80;99.90;;;;;;5048539;28;20057;-40
2020/12/31 12:30:10;;;;;;;14.15;6.20;;;23.90;99.90;;;;;;5050355;28;20432;-38
2020/12/31 12:32:40;;;;;;;11.07;6.53;;;23.20;99.90;;;;;;5055357;28;20028;-38
2020/12/31 12:35:08;;;;;;;14.90;6.25;;;22.70;99.90;;;;;;5053059;28;20025;-39
2020/12/31 12:37:35;;;;;;;14.20;5.72;;;22.40;99.90;;;;;;5052000;28;20032;-37
2020/12/31 12:40:01;;;;;;;11.40;5.88;;;22.10;99.90;;;;;;5048639;28;20395;-37
2020/12/31 12:42:26;;;;;;;11.13;7.00;;;21.90;99.90;;;;;;5054457;28;20481;-37
2020/12/31 12:44:52;;;;;;;12.07;6.05;;;21.80;99.90;;;;;;5051893;28;20037;-38
2020/12/31 12:47:18;;;;;;;14.32;6.50;;;21.60;99.90;;;;;;5048272;28;20474;-40
2020/12/31 12:49:46;;;;;;;11.35;6.60;;;21.50;99.90;;;;;;5051548;28;20021;-38
2020/12/31 12:52:12;;;;;;;20.88;11.52;;;21.50;99.90;;;;;;5047426;28;20029;-37
2020/12/31 12:54:38;;;;;;;18.70;11.35;;;21.50;99.90;;;;;;5054060;28;20187;-36
2020/12/31 12:57:04;;;;;;;17.58;10.52;;;21.40;99.90;;;;;;5048518;28;20100;-38
2020/12/31 12:59:30;;;;;;;16.73;10.57;;;21.50;99.90;;;;;;5048902;28;20036;-36
2020/12/31 13:01:56;;;;;;;15.60;9.77;;;21.50;99.90;;;;;;5044317;28;20017;-37
2020/12/31 13:04:21;;;;;;;18.10;9.13;;;21.60;99.90;;;;;;5047555;28;20057;-37
2020/12/31 13:06:49;;;;;;;17.90;8.23;;;21.70;99.90;;;;;;5043247;28;20071;-37
2020/12/31 13:09:15;;;;;;;15.35;8.18;;;21.70;99.90;;;;;;5047413;28;20097;-37